Bald Head Island, North Carolina
Current Conditions -  °F | °C
As of 3:15 PM on Friday 19 Dec 2014 (Local Time) from KSUT Reporting Station
Clear Clear  
Wind Chill: 55°   Ceiling: Unl
Heat Index: 55°   Visibility: 10mi
Dew Point: 35°   Wind: 3mph
Humidity: 47%   Direction: 180°S
Pressure: 30.11"   Gusts: NA
Location:  34.0734°N, 78.0547°W
Report Text: KSUT 192015Z AUTO 18003KT 10SM CLR 13/02 A3011 RMK AO2 T01290017
Loading
Personal Weather Stations






























Interactive Weather Map New forecast layout! Learn more

10-Day Weather Forecast

Advertisements
Track Severe Weather on mobile